createdAt,value
2023-03-18T00:01:12.816Z,157621.47
2023-03-18T00:03:40.982Z,157605.56
2023-03-18T00:06:19.479Z,157601.56
2023-03-18T00:08:49.211Z,157586.94
2023-03-18T00:11:19.570Z,157596.28
2023-03-18T00:13:49.531Z,157573.66
2023-03-18T00:16:17.878Z,157583.00
2023-03-18T00:18:46.000Z,157569.72
2023-03-18T00:21:14.483Z,157572.34
2023-03-18T00:23:43.001Z,157575.03
2023-03-18T00:26:10.776Z,157557.75
2023-03-18T00:28:42.313Z,157561.75
2023-03-18T00:31:13.337Z,157547.13
2023-03-18T00:33:46.801Z,157541.81
2023-03-18T00:36:18.569Z,157539.13
2023-03-18T00:38:51.179Z,157548.47
2023-03-18T00:41:19.332Z,157531.16
2023-03-18T00:43:57.876Z,157544.44
2023-03-18T00:46:28.988Z,157539.13
2023-03-18T00:49:00.793Z,157520.56
2023-03-18T00:51:31.832Z,157543.13
2023-03-18T00:54:03.201Z,157528.53
2023-03-18T00:56:32.724Z,157525.91
2023-03-18T00:59:01.446Z,157511.25
2023-03-18T01:01:29.985Z,157520.56
2023-03-18T01:04:00.849Z,157499.31
2023-03-18T01:06:32.558Z,157520.56
2023-03-18T01:09:01.901Z,157505.97
2023-03-18T01:11:30.357Z,157496.63
2023-03-18T01:13:59.981Z,157494.00
2023-03-18T01:16:28.832Z,157475.41
2023-03-18T01:18:57.520Z,157499.31
2023-03-18T01:21:26.178Z,157478.09
2023-03-18T01:23:57.780Z,157472.75
2023-03-18T01:26:27.283Z,157499.31
2023-03-18T01:28:58.030Z,157472.75
2023-03-18T01:31:26.106Z,157480.72
2023-03-18T01:33:58.325Z,157478.09
2023-03-18T01:36:26.064Z,157459.47
2023-03-18T01:39:07.947Z,157448.88
2023-03-18T01:41:37.320Z,157447.50
2023-03-18T01:44:14.435Z,157451.53
2023-03-18T01:46:45.967Z,157438.22
2023-03-18T01:49:29.068Z,157454.16
2023-03-18T01:52:02.868Z,157458.16
2023-03-18T01:54:34.120Z,157456.84
2023-03-18T01:57:02.951Z,157442.25
2023-03-18T01:59:34.098Z,157447.50
2023-03-18T02:02:11.503Z,157430.28
2023-03-18T02:04:46.385Z,157427.63
2023-03-18T02:07:21.313Z,157403.72
2023-03-18T02:09:51.311Z,157415.69
2023-03-18T02:12:24.875Z,157407.72
2023-03-18T02:14:57.131Z,157401.09
2023-03-18T02:17:28.406Z,157407.72
2023-03-18T02:20:18.957Z,157421.00
2023-03-18T02:22:54.185Z,157391.75
2023-03-18T02:25:50.075Z,157410.34
2023-03-18T02:28:23.981Z,157385.13
2023-03-18T02:30:56.349Z,157395.75
2023-03-18T02:33:30.088Z,157381.16
2023-03-18T02:36:04.742Z,157391.75
2023-03-18T02:38:44.245Z,157378.53
2023-03-18T02:41:20.744Z,157393.13
2023-03-18T02:43:50.608Z,157385.13
2023-03-18T02:46:41.276Z,157394.44
2023-03-18T02:49:11.303Z,157378.53
2023-03-18T02:51:40.074Z,157374.53
2023-03-18T02:54:30.359Z,157369.19
2023-03-18T02:56:59.105Z,157354.59
2023-03-18T02:59:27.807Z,157367.88
2023-03-18T03:01:58.222Z,157347.97
2023-03-18T03:04:27.343Z,157359.94
2023-03-18T03:06:57.857Z,157359.94
2023-03-18T03:09:37.178Z,157350.66
2023-03-18T03:12:07.985Z,157333.38
2023-03-18T03:14:41.082Z,157334.69
2023-03-18T03:17:10.232Z,157351.97
2023-03-18T03:19:38.990Z,157355.94
2023-03-18T03:22:07.670Z,157349.28
2023-03-18T03:24:37.722Z,157347.97
2023-03-18T03:27:07.995Z,157313.47
2023-03-18T03:29:35.856Z,157337.38
2023-03-18T03:32:04.551Z,157345.34
2023-03-18T03:34:32.282Z,157351.97
2023-03-18T03:37:00.388Z,157329.41
2023-03-18T03:39:28.584Z,157326.75
2023-03-18T03:41:57.103Z,157336.00
2023-03-18T03:44:24.732Z,157345.34
2023-03-18T03:46:53.321Z,157353.28
2023-03-18T03:49:23.238Z,157347.97
2023-03-18T03:51:51.828Z,157354.59
2023-03-18T03:54:20.565Z,157350.66
2023-03-18T03:56:49.100Z,157336.00
2023-03-18T03:59:17.861Z,157366.56
2023-03-18T04:02:04.957Z,157324.09
2023-03-18T04:04:32.990Z,157345.34
2023-03-18T04:07:01.771Z,157344.00
2023-03-18T04:09:29.716Z,157328.06
2023-03-18T04:11:58.191Z,157318.78
2023-03-18T04:14:26.719Z,157318.78
2023-03-18T04:16:58.429Z,157305.50
2023-03-18T04:19:27.828Z,157313.47
2023-03-18T04:21:56.923Z,157328.06
2023-03-18T04:24:26.540Z,157334.69
2023-03-18T04:26:55.340Z,157322.78
2023-03-18T04:29:23.707Z,157317.47
2023-03-18T04:31:52.056Z,157322.78
2023-03-18T04:34:22.769Z,157328.06
2023-03-18T04:36:51.037Z,157300.19
2023-03-18T04:39:19.533Z,157292.22
2023-03-18T04:41:48.468Z,157313.47
2023-03-18T04:44:17.584Z,157302.88
2023-03-18T04:46:56.561Z,157306.81
2023-03-18T04:49:25.834Z,157276.31
2023-03-18T04:51:55.658Z,157304.19
2023-03-18T04:54:29.311Z,157271.00
2023-03-18T04:57:01.894Z,157277.63
2023-03-18T04:59:33.026Z,157273.69
2023-03-18T05:02:05.116Z,157278.94
2023-03-18T05:04:34.177Z,157294.91
2023-03-18T05:07:02.684Z,157312.13
2023-03-18T05:09:36.177Z,157306.81
2023-03-18T05:12:05.846Z,157316.16
2023-03-18T05:14:37.791Z,157361.25
2023-03-18T05:17:06.225Z,157382.47
2023-03-18T05:19:37.977Z,157411.69
2023-03-18T05:22:14.231Z,157438.22
2023-03-18T05:24:43.865Z,157451.53
2023-03-18T05:27:12.553Z,157490.00
2023-03-18T05:29:45.212Z,157517.88
2023-03-18T05:32:20.831Z,157561.75
2023-03-18T05:34:55.299Z,157578.97
2023-03-18T05:37:24.169Z,157571.03
2023-03-18T05:40:00.469Z,157573.66
2023-03-18T05:42:29.588Z,157620.16
2023-03-18T05:44:58.395Z,157645.41
2023-03-18T05:47:28.313Z,157642.72
2023-03-18T05:50:05.340Z,157617.53
2023-03-18T05:52:35.718Z,157668.00
2023-03-18T05:55:06.822Z,157685.25
2023-03-18T05:57:39.134Z,157714.47
2023-03-18T06:00:10.772Z,157751.69
2023-03-18T06:02:47.246Z,157786.25
2023-03-18T06:05:16.939Z,157815.47
2023-03-18T06:07:47.474Z,157879.28
2023-03-18T06:10:15.621Z,157900.53
2023-03-18T06:12:46.076Z,158006.91
2023-03-18T06:15:13.867Z,158036.16
2023-03-18T06:17:42.502Z,158066.78
2023-03-18T06:20:12.256Z,158062.75
2023-03-18T06:22:40.750Z,158086.69
2023-03-18T06:25:08.643Z,158066.78
2023-03-18T06:27:39.458Z,158044.13
2023-03-18T06:30:07.977Z,158016.19
2023-03-18T06:32:38.633Z,158021.53
2023-03-18T06:35:07.452Z,158060.13
2023-03-18T06:37:39.412Z,158066.78
2023-03-18T06:40:09.681Z,158147.94
2023-03-18T06:42:38.559Z,158134.56
2023-03-18T06:45:18.583Z,158170.53
2023-03-18T06:47:53.823Z,158198.47
2023-03-18T06:50:22.576Z,158247.69
2023-03-18T06:52:51.146Z,158278.34
2023-03-18T06:55:26.647Z,158261.00
2023-03-18T06:57:55.285Z,158251.72
2023-03-18T07:00:28.954Z,158206.50
2023-03-18T07:02:58.529Z,158218.44
2023-03-18T07:05:28.744Z,158262.38
2023-03-18T07:07:57.047Z,158263.72
2023-03-18T07:10:28.490Z,158270.38
2023-03-18T07:13:03.661Z,158254.34
2023-03-18T07:15:32.253Z,158266.34
2023-03-18T07:18:03.444Z,158271.69
2023-03-18T07:20:33.168Z,158288.97
2023-03-18T07:23:02.074Z,158343.53
2023-03-18T07:25:32.372Z,158392.78
2023-03-18T07:28:01.023Z,158470.00
2023-03-18T07:30:29.322Z,158516.63
2023-03-18T07:32:58.315Z,158541.91
2023-03-18T07:35:28.368Z,158491.31
2023-03-18T07:37:57.263Z,158478.00
2023-03-18T07:40:24.941Z,158495.31
2023-03-18T07:42:54.117Z,158505.94
2023-03-18T07:45:21.919Z,158525.94
2023-03-18T07:47:50.550Z,158563.22
2023-03-18T07:50:18.820Z,158627.13
2023-03-18T07:52:47.978Z,158651.16
2023-03-18T07:55:16.539Z,158695.09
2023-03-18T07:57:44.663Z,158683.09
2023-03-18T08:00:14.154Z,158681.75
2023-03-18T08:02:42.841Z,158699.13
2023-03-18T08:05:11.223Z,158643.16
2023-03-18T08:07:39.504Z,158716.41
2023-03-18T08:10:09.238Z,158767.03
2023-03-18T08:12:51.659Z,158756.41
2023-03-18T08:15:20.346Z,158767.03
2023-03-18T08:17:48.753Z,158743.06
2023-03-18T08:20:16.918Z,158788.41
2023-03-18T08:22:46.256Z,158832.41
2023-03-18T08:25:14.166Z,158861.75
2023-03-18T08:27:42.626Z,158795.06
2023-03-18T08:30:11.388Z,158799.09
2023-03-18T08:32:39.534Z,158837.72
2023-03-18T08:35:07.908Z,158897.72
2023-03-18T08:37:37.064Z,158883.06
2023-03-18T08:40:06.299Z,158881.72
2023-03-18T08:42:34.450Z,158947.03
2023-03-18T08:45:03.001Z,158912.38
2023-03-18T08:47:32.032Z,158912.38
2023-03-18T08:49:59.653Z,158940.38
2023-03-18T08:52:27.907Z,158987.06
2023-03-18T08:54:55.732Z,159019.03
2023-03-18T08:57:24.171Z,159021.69
2023-03-18T08:59:52.043Z,159092.41
2023-03-18T09:02:20.769Z,159084.38
2023-03-18T09:04:49.532Z,159099.03
2023-03-18T09:07:19.187Z,159107.06
2023-03-18T09:09:46.976Z,159119.03
2023-03-18T09:12:15.658Z,159128.41
2023-03-18T09:14:44.384Z,159104.38
2023-03-18T09:17:13.067Z,159061.69
2023-03-18T09:19:40.978Z,159077.69
2023-03-18T09:22:12.433Z,159099.03
2023-03-18T09:24:41.258Z,159121.75
2023-03-18T09:27:09.678Z,159115.06
2023-03-18T09:29:37.438Z,159133.72
2023-03-18T09:32:06.332Z,159183.06
2023-03-18T09:34:34.164Z,159199.13
2023-03-18T09:37:02.587Z,159240.47
2023-03-18T09:39:30.333Z,159176.41
2023-03-18T09:42:17.348Z,159073.72
2023-03-18T09:44:45.619Z,159053.69
2023-03-18T09:47:36.666Z,159053.69
2023-03-18T09:50:11.165Z,158999.03
2023-03-18T09:52:48.953Z,158992.34
2023-03-18T09:55:28.041Z,159044.38
2023-03-18T09:58:03.562Z,159088.38
2023-03-18T10:00:35.616Z,159095.06
2023-03-18T10:03:20.156Z,159081.72
2023-03-18T10:05:52.854Z,159097.69
2023-03-18T10:08:52.344Z,159085.75
2023-03-18T10:11:27.961Z,159128.41
2023-03-18T10:14:09.297Z,159116.41
2023-03-18T10:17:06.517Z,159112.38
2023-03-18T10:19:35.262Z,159136.41
2023-03-18T10:22:30.228Z,159177.78
2023-03-18T10:25:01.777Z,159107.06
2023-03-18T10:28:06.970Z,159157.75
2023-03-18T10:30:46.142Z,159169.78
2023-03-18T10:33:19.278Z,159149.75
2023-03-18T10:36:13.748Z,159133.72
2023-03-18T10:38:45.173Z,159147.06
2023-03-18T10:41:17.935Z,159189.75
2023-03-18T10:43:48.433Z,159205.78
2023-03-18T10:46:17.377Z,159239.09
2023-03-18T10:48:52.803Z,159297.91
2023-03-18T10:51:31.666Z,159372.59
2023-03-18T10:54:22.584Z,159376.63
2023-03-18T10:56:51.253Z,159428.66
2023-03-18T10:59:21.060Z,159395.34
2023-03-18T11:01:54.658Z,159399.31
2023-03-18T11:04:24.291Z,159415.31
2023-03-18T11:07:04.006Z,159360.63
2023-03-18T11:09:34.460Z,159305.91
2023-03-18T11:12:29.414Z,159299.22
2023-03-18T11:14:58.412Z,159328.56
2023-03-18T11:17:35.691Z,159360.63
2023-03-18T11:20:21.007Z,159331.22
2023-03-18T11:22:52.231Z,159345.94
2023-03-18T11:25:24.691Z,159376.63
2023-03-18T11:28:03.600Z,159399.31
2023-03-18T11:30:46.991Z,159459.41
2023-03-18T11:33:17.789Z,159498.09
2023-03-18T11:35:58.764Z,159483.41
2023-03-18T11:38:29.883Z,159511.44
2023-03-18T11:41:18.494Z,159544.84
2023-03-18T11:44:11.690Z,159587.56
2023-03-18T11:47:16.736Z,159599.63
2023-03-18T11:49:45.018Z,159560.84
2023-03-18T11:52:40.003Z,159560.84
2023-03-18T11:55:18.668Z,159530.16
2023-03-18T11:58:00.145Z,159514.09
2023-03-18T12:00:34.601Z,159542.16
2023-03-18T12:03:31.519Z,159555.50
2023-03-18T12:06:14.705Z,159531.50
2023-03-18T12:09:21.571Z,159471.38
2023-03-18T12:11:49.414Z,159510.13
2023-03-18T12:14:26.105Z,159535.47
2023-03-18T12:17:08.508Z,159548.81
2023-03-18T12:19:57.681Z,159583.56
2023-03-18T12:22:51.608Z,159606.25
2023-03-18T12:25:30.898Z,159638.31
2023-03-18T12:28:11.339Z,159662.34
2023-03-18T12:30:48.060Z,159654.34
2023-03-18T12:33:37.499Z,159670.41
2023-03-18T12:36:24.280Z,159677.06
2023-03-18T12:39:31.128Z,159682.38
2023-03-18T12:42:03.386Z,159721.19
2023-03-18T12:44:46.951Z,159709.16
2023-03-18T12:47:15.692Z,159682.38
2023-03-18T12:49:57.015Z,159689.13
2023-03-18T12:52:46.829Z,159662.34
2023-03-18T12:55:48.125Z,159658.34
2023-03-18T12:58:19.583Z,159685.13
2023-03-18T13:00:54.173Z,159715.84
2023-03-18T13:03:35.060Z,159722.53
2023-03-18T13:06:23.326Z,159706.50
2023-03-18T13:09:22.465Z,159718.50
2023-03-18T13:12:12.877Z,159723.84
2023-03-18T13:15:25.918Z,159735.88
2023-03-18T13:17:57.466Z,159737.22
2023-03-18T13:20:29.187Z,159725.19
2023-03-18T13:23:16.411Z,159735.88
2023-03-18T13:26:05.962Z,159735.88
2023-03-18T13:28:45.435Z,159765.28
2023-03-18T13:31:39.354Z,159792.00
2023-03-18T13:34:45.450Z,159759.91
2023-03-18T13:37:30.724Z,159747.94
2023-03-18T13:40:36.857Z,159777.31
2023-03-18T13:43:06.351Z,159798.69
2023-03-18T13:45:39.938Z,159786.66
2023-03-18T13:48:08.788Z,159769.31
2023-03-18T13:50:40.332Z,159758.59
2023-03-18T13:53:29.699Z,159742.56
2023-03-18T13:56:00.776Z,159725.19
2023-03-18T13:58:41.839Z,159730.53
2023-03-18T14:01:33.618Z,159742.56
2023-03-18T14:04:33.954Z,159754.59
2023-03-18T14:07:23.108Z,159727.88
2023-03-18T14:10:18.457Z,159737.22
2023-03-18T14:12:48.170Z,159738.53
2023-03-18T14:15:17.004Z,159723.84
2023-03-18T14:18:03.458Z,159679.72
2023-03-18T14:20:39.606Z,159661.00
2023-03-18T14:23:28.208Z,159663.72
2023-03-18T14:26:24.730Z,159677.06
2023-03-18T14:29:22.903Z,159694.47
2023-03-18T14:31:58.244Z,159707.84
2023-03-18T14:34:28.526Z,159703.81
2023-03-18T14:36:56.813Z,159702.47
2023-03-18T14:39:43.584Z,159689.13
2023-03-18T14:42:32.194Z,159683.72
2023-03-18T14:45:12.153Z,159663.72
2023-03-18T14:47:46.822Z,159662.34
2023-03-18T14:50:29.557Z,159655.66
2023-03-18T14:53:03.312Z,159654.34
2023-03-18T14:55:34.293Z,159642.34
2023-03-18T14:58:03.272Z,159643.66
2023-03-18T15:00:36.010Z,159624.94
2023-03-18T15:03:11.920Z,159618.28
2023-03-18T15:05:42.394Z,159624.94
2023-03-18T15:08:18.653Z,159615.63
2023-03-18T15:10:49.936Z,159598.22
2023-03-18T15:13:20.386Z,159592.94
2023-03-18T15:15:49.198Z,159579.56
2023-03-18T15:18:34.569Z,159584.88
2023-03-18T15:21:28.950Z,159580.91
2023-03-18T15:23:57.524Z,159582.22
2023-03-18T15:26:30.971Z,159564.88
2023-03-18T15:29:00.769Z,159555.50
2023-03-18T15:31:39.296Z,159547.50
2023-03-18T15:34:16.076Z,159532.81
2023-03-18T15:36:46.849Z,159535.47
2023-03-18T15:39:33.935Z,159504.78
2023-03-18T15:42:03.794Z,159464.72
2023-03-18T15:44:35.765Z,159532.81
2023-03-18T15:47:11.307Z,159523.50
2023-03-18T15:49:51.728Z,159527.47
2023-03-18T15:52:25.278Z,159518.13
2023-03-18T15:54:53.949Z,159504.78
2023-03-18T15:57:43.614Z,159506.09
2023-03-18T16:00:13.291Z,159490.09
2023-03-18T16:02:41.978Z,159494.13
2023-03-18T16:05:18.319Z,159494.13
2023-03-18T16:07:47.313Z,159470.06
2023-03-18T16:10:20.922Z,159478.06
2023-03-18T16:12:55.892Z,159478.06
2023-03-18T16:15:25.554Z,159454.06
2023-03-18T16:17:55.122Z,159460.72
2023-03-18T16:20:24.590Z,159472.75
2023-03-18T16:22:52.736Z,159459.41
2023-03-18T16:25:20.573Z,159446.03
2023-03-18T16:27:50.503Z,159426.00
2023-03-18T16:30:30.388Z,159415.31
2023-03-18T16:32:59.313Z,159419.34
2023-03-18T16:35:31.171Z,159403.34
2023-03-18T16:38:00.583Z,159393.97
2023-03-18T16:40:33.097Z,159400.63
2023-03-18T16:43:01.538Z,159415.31
2023-03-18T16:45:31.273Z,159399.31
2023-03-18T16:48:02.499Z,159385.97
2023-03-18T16:50:34.410Z,159357.94
2023-03-18T16:53:03.642Z,159347.28
2023-03-18T16:55:31.797Z,159359.25
2023-03-18T16:58:01.042Z,159364.59
2023-03-18T17:00:32.964Z,159368.63
2023-03-18T17:03:02.404Z,159372.59
2023-03-18T17:05:31.419Z,159363.28
2023-03-18T17:07:59.852Z,159368.63
2023-03-18T17:10:28.746Z,159355.28
2023-03-18T17:13:02.405Z,159369.97
2023-03-18T17:15:32.445Z,159357.94
2023-03-18T17:18:01.899Z,159347.28
2023-03-18T17:20:32.604Z,159364.59
2023-03-18T18:27:16.492Z,159176.41
2023-03-18T18:29:46.217Z,159175.06
2023-03-18T18:32:15.800Z,159176.41
2023-03-18T18:34:44.322Z,159161.72
2023-03-18T18:37:13.150Z,159145.72
2023-03-18T18:39:42.867Z,159139.06
2023-03-18T18:42:14.521Z,159144.41
2023-03-18T18:44:43.815Z,159129.75
2023-03-18T18:47:20.409Z,159111.03
2023-03-18T18:49:49.032Z,159109.72
2023-03-18T18:52:17.134Z,159112.38
2023-03-18T18:54:45.609Z,159109.72
2023-03-18T18:57:27.039Z,159085.75
2023-03-18T18:59:55.917Z,159079.06
2023-03-18T19:02:32.622Z,159071.06
2023-03-18T19:05:02.913Z,159056.34
2023-03-18T19:07:33.861Z,159052.38
2023-03-18T19:10:02.368Z,159047.03
2023-03-18T19:12:30.931Z,159049.69
2023-03-18T19:14:59.924Z,159037.72
2023-03-18T19:17:28.063Z,159032.38
2023-03-18T19:19:56.302Z,158997.69
2023-03-18T19:22:25.736Z,159008.38
2023-03-18T19:24:55.049Z,159004.38
2023-03-18T19:27:24.068Z,158997.69
2023-03-18T19:30:00.485Z,158984.34
2023-03-18T19:32:28.250Z,158977.69
2023-03-18T19:34:56.623Z,158973.72
2023-03-18T19:37:28.328Z,158975.03
2023-03-18T19:39:57.323Z,158964.34
2023-03-18T19:42:25.790Z,158959.06
2023-03-18T19:44:54.376Z,158949.69
2023-03-18T19:47:27.040Z,158936.34
2023-03-18T19:49:56.144Z,158945.72
2023-03-18T19:52:26.288Z,158923.00
2023-03-18T19:54:55.890Z,158919.03
2023-03-18T19:57:28.516Z,158905.72
2023-03-18T19:59:58.752Z,158913.69
2023-03-18T20:02:31.973Z,158908.34
2023-03-18T20:05:03.727Z,158885.72
2023-03-18T20:07:33.210Z,158880.38
2023-03-18T20:10:01.329Z,158864.38
2023-03-18T20:12:31.937Z,158883.06
2023-03-18T20:15:00.253Z,158871.06
2023-03-18T20:17:31.484Z,158868.41
2023-03-18T20:20:00.079Z,158845.69
2023-03-18T20:22:34.072Z,158845.69
2023-03-18T20:25:04.120Z,158828.41
2023-03-18T20:27:33.104Z,158824.38
2023-03-18T20:30:01.788Z,158797.75
2023-03-18T20:32:30.186Z,158821.72
2023-03-18T20:34:58.395Z,158808.41
2023-03-18T20:37:33.703Z,158765.72
2023-03-18T20:40:07.588Z,158781.75
2023-03-18T20:42:35.178Z,158759.03
2023-03-18T20:45:03.564Z,158763.06
2023-03-18T20:47:31.812Z,158743.06
2023-03-18T20:49:59.978Z,158736.41
2023-03-18T20:52:31.596Z,158733.75
2023-03-18T20:55:00.092Z,158700.44
2023-03-18T20:57:28.244Z,158704.41
2023-03-18T20:59:56.984Z,158707.09
2023-03-18T21:02:33.928Z,158691.13
2023-03-18T21:05:03.531Z,158680.44
2023-03-18T21:07:31.680Z,158684.47
2023-03-18T21:10:01.257Z,158672.47
2023-03-18T21:12:29.047Z,158648.44
2023-03-18T21:14:57.040Z,158667.13
2023-03-18T21:17:27.634Z,158637.81
2023-03-18T21:20:05.005Z,158656.50
2023-03-18T21:22:39.811Z,158637.81
2023-03-18T21:25:10.954Z,158625.81
2023-03-18T21:27:38.961Z,158632.47
2023-03-18T21:30:09.850Z,158624.50
2023-03-18T21:32:39.194Z,158629.84
2023-03-18T21:35:12.578Z,158635.19
2023-03-18T21:37:40.434Z,158631.16
2023-03-18T21:40:15.443Z,158605.81
2023-03-18T21:42:43.994Z,158615.19
2023-03-18T21:45:19.302Z,158623.16
2023-03-18T21:51:39.102Z,158608.53
2023-03-18T21:54:17.589Z,158593.88
2023-03-18T21:56:46.677Z,158588.53
2023-03-18T21:59:14.701Z,158595.19
2023-03-18T22:01:43.011Z,158596.50
2023-03-18T22:04:10.665Z,158589.84
2023-03-18T22:06:39.016Z,158585.88
2023-03-18T22:09:07.571Z,158573.88
2023-03-18T22:11:36.281Z,158579.22
2023-03-18T22:14:04.197Z,158575.22
2023-03-18T22:16:32.781Z,158567.22
2023-03-18T22:19:01.350Z,158560.56
2023-03-18T22:21:30.019Z,158560.56
2023-03-18T22:24:00.457Z,158547.25
2023-03-18T22:26:29.189Z,158541.91
2023-03-18T22:28:56.984Z,158541.91
2023-03-18T22:31:28.949Z,158541.91
2023-03-18T22:33:58.510Z,158533.91
2023-03-18T22:36:29.064Z,158525.94
2023-03-18T22:38:57.137Z,158512.63
2023-03-18T22:41:30.604Z,158493.94
2023-03-18T22:44:00.136Z,158496.66
2023-03-18T22:46:28.830Z,158487.34
2023-03-18T22:48:57.289Z,158474.03
2023-03-18T22:51:30.833Z,158458.00
2023-03-18T22:53:58.745Z,158472.66
2023-03-18T22:56:27.197Z,158480.69
2023-03-18T22:58:55.085Z,158466.00
2023-03-18T23:01:28.560Z,158452.72
2023-03-18T23:03:56.469Z,158459.38
2023-03-18T23:06:24.940Z,158444.69
2023-03-18T23:08:52.781Z,158443.38
2023-03-18T23:11:21.220Z,158432.75
2023-03-18T23:13:54.090Z,158431.41
2023-03-18T23:16:23.977Z,158430.03
2023-03-18T23:18:52.365Z,158412.75
2023-03-18T23:21:23.290Z,158391.47
2023-03-18T23:23:52.642Z,158383.50
2023-03-18T23:26:21.219Z,158390.16
2023-03-18T23:28:49.859Z,158395.44
2023-03-18T23:31:18.534Z,158390.16
2023-03-18T23:33:47.387Z,158374.13
2023-03-18T23:36:16.298Z,158359.50
2023-03-18T23:38:43.794Z,158348.88
2023-03-18T23:41:13.012Z,158348.88
2023-03-18T23:43:40.797Z,158326.25
2023-03-18T23:46:09.596Z,158287.63
2023-03-18T23:48:37.870Z,158286.31
2023-03-18T23:51:06.103Z,158286.31
2023-03-18T23:53:33.952Z,158262.38
2023-03-18T23:56:02.102Z,158243.75
2023-03-18T23:58:29.839Z,158238.41
